createdAt,value
2022-09-30T00:00:27.660Z,11.10
2022-09-30T00:01:29.388Z,11.43
2022-09-30T00:02:32.372Z,13.73
2022-09-30T00:03:34.015Z,12.63
2022-09-30T00:04:36.557Z,15.02
2022-09-30T00:05:38.128Z,13.07
2022-09-30T00:06:40.731Z,13.27
2022-09-30T00:07:42.315Z,14.95
2022-09-30T00:08:44.808Z,16.02
2022-09-30T00:09:47.949Z,15.23
2022-09-30T00:10:59.750Z,13.98
2022-09-30T00:12:01.853Z,15.30
2022-09-30T00:13:05.700Z,11.85
2022-09-30T00:14:09.574Z,19.98
2022-09-30T00:15:11.215Z,13.18
2022-09-30T00:16:15.258Z,11.50
2022-09-30T00:17:16.943Z,11.82
2022-09-30T00:18:19.475Z,10.10
2022-09-30T00:19:21.116Z,13.80
2022-09-30T00:20:23.762Z,12.18
2022-09-30T00:21:26.655Z,12.68
2022-09-30T00:22:29.236Z,13.55
2022-09-30T00:23:30.772Z,17.45
2022-09-30T00:24:33.269Z,10.52
2022-09-30T00:25:34.829Z,14.38
2022-09-30T00:26:37.739Z,11.98
2022-09-30T00:27:39.724Z,12.32
2022-09-30T00:28:44.731Z,11.23
2022-09-30T00:29:46.600Z,11.65
2022-09-30T00:30:49.134Z,13.02
2022-09-30T00:31:50.897Z,13.73
2022-09-30T00:32:53.464Z,11.77
2022-09-30T00:34:07.545Z,15.70
2022-09-30T00:35:10.401Z,11.60
2022-09-30T00:36:12.020Z,15.85
2022-09-30T00:37:16.667Z,12.00
2022-09-30T00:38:18.229Z,11.45
2022-09-30T00:39:23.816Z,12.82
2022-09-30T00:40:26.148Z,12.77
2022-09-30T00:41:28.754Z,12.27
2022-09-30T00:42:30.689Z,13.57
2022-09-30T00:43:51.289Z,11.60
2022-09-30T00:44:54.984Z,12.20
2022-09-30T00:46:00.512Z,13.65
2022-09-30T00:47:02.425Z,13.52
2022-09-30T00:48:09.563Z,11.48
2022-09-30T00:49:15.857Z,14.10
2022-09-30T00:50:30.600Z,14.93
2022-09-30T00:51:36.758Z,16.85
2022-09-30T00:52:39.724Z,16.60
2022-09-30T00:53:51.991Z,10.90
2022-09-30T00:54:55.250Z,10.80
2022-09-30T00:56:01.024Z,12.25
2022-09-30T00:57:04.424Z,11.40
2022-09-30T00:58:10.551Z,11.80
2022-09-30T00:59:18.253Z,11.50
2022-09-30T01:00:20.888Z,11.05
2022-09-30T01:01:24.087Z,15.30
2022-09-30T01:02:26.659Z,13.27
2022-09-30T01:03:31.035Z,12.32
2022-09-30T01:04:35.892Z,16.45
2022-09-30T01:05:37.642Z,9.88
2022-09-30T01:06:42.251Z,14.23
2022-09-30T01:07:47.047Z,10.48
2022-09-30T01:08:50.260Z,12.15
2022-09-30T01:09:52.380Z,13.00
2022-09-30T01:10:54.917Z,12.75
2022-09-30T01:11:56.761Z,9.68
2022-09-30T01:13:00.420Z,13.00
2022-09-30T01:14:17.571Z,14.73
2022-09-30T01:15:30.243Z,13.40
2022-09-30T01:16:55.615Z,11.40
2022-09-30T01:18:06.256Z,14.15
2022-09-30T01:19:27.460Z,13.35
2022-09-30T01:21:08.067Z,12.35
2022-09-30T01:22:20.924Z,15.85
2022-09-30T01:23:52.546Z,11.30
2022-09-30T01:25:31.227Z,12.32
2022-09-30T01:26:53.336Z,11.32
2022-09-30T01:28:29.225Z,16.02
2022-09-30T01:29:57.973Z,12.60
2022-09-30T01:31:22.166Z,13.65
2022-09-30T01:32:33.822Z,11.75
2022-09-30T01:33:46.052Z,13.70
2022-09-30T01:34:55.708Z,12.98
2022-09-30T01:36:25.219Z,14.48
2022-09-30T01:37:38.110Z,13.35
2022-09-30T01:38:48.549Z,13.40
2022-09-30T01:40:04.227Z,13.30
2022-09-30T01:41:10.685Z,11.40
2022-09-30T01:42:19.688Z,12.75
2022-09-30T01:43:29.693Z,11.80
2022-09-30T01:44:38.913Z,15.27
2022-09-30T01:45:44.846Z,15.73
2022-09-30T01:46:56.469Z,14.48
2022-09-30T01:48:02.211Z,13.40
2022-09-30T01:49:12.377Z,14.25
2022-09-30T01:50:20.144Z,13.05
2022-09-30T01:51:33.793Z,14.50
2022-09-30T01:52:41.298Z,15.73
2022-09-30T01:53:48.162Z,13.40
2022-09-30T01:54:55.133Z,10.95
2022-09-30T01:56:03.744Z,20.25
2022-09-30T01:57:11.532Z,15.43
2022-09-30T01:58:20.112Z,12.05
2022-09-30T01:59:26.871Z,12.77
2022-09-30T02:00:29.582Z,13.07
2022-09-30T02:01:39.157Z,16.20
2022-09-30T02:02:49.983Z,14.23
2022-09-30T02:03:55.711Z,12.25
2022-09-30T02:05:02.783Z,18.08
2022-09-30T02:06:08.561Z,14.73
2022-09-30T02:07:16.828Z,12.45
2022-09-30T02:08:24.050Z,13.20
2022-09-30T02:09:30.435Z,13.93
2022-09-30T02:10:35.516Z,11.88
2022-09-30T02:11:39.553Z,12.65
2022-09-30T02:12:47.998Z,11.80
2022-09-30T02:13:54.794Z,13.65
2022-09-30T02:15:02.163Z,12.48
2022-09-30T02:16:12.925Z,11.30
2022-09-30T02:17:21.118Z,15.18
2022-09-30T02:18:29.623Z,11.55
2022-09-30T02:19:36.959Z,14.20
2022-09-30T02:20:44.079Z,12.77
2022-09-30T02:21:51.598Z,13.48
2022-09-30T02:23:01.636Z,12.18
2022-09-30T02:24:09.798Z,14.77
2022-09-30T02:25:20.106Z,9.82
2022-09-30T02:26:27.094Z,14.57
2022-09-30T02:27:41.495Z,11.07
2022-09-30T02:28:49.045Z,11.93
2022-09-30T02:29:56.446Z,12.85
2022-09-30T02:31:02.400Z,13.90
2022-09-30T02:32:07.652Z,14.65
2022-09-30T02:33:14.539Z,13.63
2022-09-30T02:34:20.965Z,10.90
2022-09-30T02:35:28.888Z,12.05
2022-09-30T02:36:34.894Z,12.55
2022-09-30T02:37:42.610Z,13.43
2022-09-30T02:38:48.925Z,16.45
2022-09-30T02:39:55.950Z,11.90
2022-09-30T02:41:02.279Z,18.25
2022-09-30T02:42:12.713Z,13.27
2022-09-30T02:43:17.708Z,17.17
2022-09-30T02:44:20.342Z,13.48
2022-09-30T02:45:25.004Z,10.85
2022-09-30T02:46:35.075Z,10.60
2022-09-30T02:47:49.141Z,11.32
2022-09-30T02:49:01.584Z,10.73
2022-09-30T02:50:13.249Z,11.85
2022-09-30T02:51:21.066Z,13.27
2022-09-30T02:52:27.774Z,10.60
2022-09-30T02:53:36.483Z,12.57
2022-09-30T02:54:52.410Z,12.23
2022-09-30T02:56:09.530Z,9.77
2022-09-30T02:57:20.429Z,10.85
2022-09-30T02:58:26.181Z,12.00
2022-09-30T02:59:29.034Z,9.48
2022-09-30T03:00:30.800Z,13.85
2022-09-30T03:01:33.500Z,13.60
2022-09-30T03:02:35.503Z,11.10
2022-09-30T03:03:41.564Z,17.75
2022-09-30T03:04:45.773Z,12.38
2022-09-30T03:05:51.638Z,11.10
2022-09-30T03:06:54.232Z,13.43
2022-09-30T03:07:57.465Z,13.38
2022-09-30T03:08:59.048Z,10.50
2022-09-30T03:10:01.550Z,12.30
2022-09-30T03:11:05.113Z,11.25
2022-09-30T03:12:16.736Z,15.35
2022-09-30T03:13:35.222Z,13.15
2022-09-30T03:14:51.552Z,9.52
2022-09-30T03:16:09.733Z,15.73
2022-09-30T03:17:30.572Z,12.93
2022-09-30T03:18:54.046Z,12.57
2022-09-30T03:20:14.516Z,14.73
2022-09-30T03:21:33.432Z,9.85
2022-09-30T03:22:51.227Z,9.07
2022-09-30T03:24:13.473Z,9.82
2022-09-30T03:25:29.348Z,10.40
2022-09-30T03:26:41.087Z,12.50
2022-09-30T03:27:55.388Z,12.63
2022-09-30T03:29:07.147Z,14.70
2022-09-30T03:30:16.015Z,13.23
2022-09-30T03:31:25.787Z,17.35
2022-09-30T03:32:42.503Z,11.25
2022-09-30T03:33:50.338Z,11.40
2022-09-30T03:35:03.275Z,10.18
2022-09-30T03:36:09.246Z,14.05
2022-09-30T03:37:20.826Z,11.15
2022-09-30T03:38:34.768Z,10.00
2022-09-30T03:39:54.963Z,12.50
2022-09-30T03:41:04.012Z,14.68
2022-09-30T03:42:12.130Z,13.20
2022-09-30T03:43:21.285Z,16.67
2022-09-30T03:44:30.782Z,12.40
2022-09-30T03:45:46.539Z,11.23
2022-09-30T03:46:52.544Z,10.30
2022-09-30T03:47:58.614Z,15.38
2022-09-30T03:49:04.994Z,10.75
2022-09-30T03:50:09.720Z,10.68
2022-09-30T03:51:12.974Z,9.88
2022-09-30T03:52:16.978Z,10.05
2022-09-30T03:53:19.784Z,13.05
2022-09-30T03:54:22.805Z,11.70
2022-09-30T03:55:26.307Z,11.02
2022-09-30T03:56:29.501Z,12.30
2022-09-30T03:57:32.435Z,14.27
2022-09-30T03:58:34.735Z,12.15
2022-09-30T03:59:37.231Z,14.52
2022-09-30T04:00:42.690Z,9.35
2022-09-30T04:01:45.267Z,12.80
2022-09-30T04:02:46.934Z,13.60
2022-09-30T04:03:52.180Z,15.18
2022-09-30T04:04:53.705Z,14.15
2022-09-30T04:05:56.209Z,10.02
2022-09-30T04:06:57.741Z,15.20
2022-09-30T04:08:01.933Z,14.02
2022-09-30T04:09:03.714Z,13.85
2022-09-30T04:10:06.949Z,11.50
2022-09-30T04:11:08.538Z,14.23
2022-09-30T04:12:11.603Z,12.32
2022-09-30T04:13:13.160Z,12.07
2022-09-30T04:14:15.743Z,11.30
2022-09-30T04:15:17.282Z,11.57
2022-09-30T04:16:19.959Z,14.13
2022-09-30T04:17:22.360Z,11.85
2022-09-30T04:18:24.885Z,16.10
2022-09-30T04:19:26.495Z,17.92
2022-09-30T04:20:30.709Z,9.60
2022-09-30T04:21:32.390Z,10.18
2022-09-30T04:22:34.970Z,13.15
2022-09-30T04:23:38.610Z,13.25
2022-09-30T04:24:41.114Z,10.13
2022-09-30T04:25:42.652Z,9.55
2022-09-30T04:26:45.113Z,15.40
2022-09-30T04:27:46.616Z,12.85
2022-09-30T04:28:49.073Z,11.35
2022-09-30T04:29:50.623Z,11.63
2022-09-30T04:30:53.265Z,10.20
2022-09-30T04:31:54.926Z,13.65
2022-09-30T04:32:57.752Z,12.57
2022-09-30T04:33:59.240Z,11.35
2022-09-30T04:35:01.715Z,11.80
2022-09-30T04:36:04.568Z,13.05
2022-09-30T04:37:10.739Z,12.60
2022-09-30T04:38:12.547Z,11.88
2022-09-30T04:39:16.375Z,15.40
2022-09-30T04:40:17.936Z,10.52
2022-09-30T04:41:20.943Z,17.20
2022-09-30T04:42:22.468Z,17.90
2022-09-30T04:43:26.191Z,16.58
2022-09-30T04:44:28.677Z,12.02
2022-09-30T04:45:30.277Z,15.27
2022-09-30T04:46:33.653Z,10.50
2022-09-30T04:47:35.331Z,17.65
2022-09-30T04:48:37.805Z,13.85
2022-09-30T04:49:39.337Z,13.38
2022-09-30T04:50:42.171Z,12.80
2022-09-30T04:51:45.989Z,13.50
2022-09-30T04:52:48.543Z,12.90
2022-09-30T04:53:50.329Z,23.13
2022-09-30T04:54:55.001Z,11.40
2022-09-30T04:56:00.168Z,11.82
2022-09-30T04:57:02.679Z,14.43
2022-09-30T04:58:04.364Z,11.85
2022-09-30T04:59:07.215Z,14.50
2022-09-30T05:00:11.464Z,15.93
2022-09-30T05:01:17.553Z,13.82
2022-09-30T05:02:20.145Z,9.65
2022-09-30T05:03:21.736Z,12.30
2022-09-30T05:04:24.279Z,13.82
2022-09-30T05:05:25.923Z,14.52
2022-09-30T05:06:28.488Z,14.60
2022-09-30T05:07:31.122Z,17.08
2022-09-30T05:08:34.696Z,15.70
2022-09-30T05:09:36.456Z,12.57
2022-09-30T05:10:40.312Z,11.27
2022-09-30T05:11:42.555Z,10.27
2022-09-30T05:12:45.110Z,10.63
2022-09-30T05:13:47.332Z,9.85
2022-09-30T05:14:49.787Z,10.68
2022-09-30T05:15:51.897Z,17.30
2022-09-30T05:16:54.460Z,15.50
2022-09-30T05:17:56.001Z,15.55
2022-09-30T05:18:58.495Z,13.32
2022-09-30T05:20:00.534Z,11.38
2022-09-30T05:21:04.014Z,11.30
2022-09-30T05:22:06.580Z,15.70
2022-09-30T05:23:08.174Z,12.95
2022-09-30T05:24:10.904Z,16.40
2022-09-30T05:25:12.425Z,14.30
2022-09-30T05:26:16.693Z,23.52
2022-09-30T05:27:18.499Z,13.85
2022-09-30T05:28:21.096Z,15.88
2022-09-30T05:29:22.717Z,14.00
2022-09-30T05:30:25.263Z,12.82
2022-09-30T05:31:27.004Z,16.15
2022-09-30T05:32:31.939Z,11.18
2022-09-30T05:33:35.631Z,13.10
2022-09-30T05:34:38.908Z,13.63
2022-09-30T05:35:41.766Z,11.80
2022-09-30T05:36:44.691Z,12.73
2022-09-30T05:37:46.261Z,16.83
2022-09-30T05:38:51.794Z,14.25
2022-09-30T05:39:54.932Z,10.95
2022-09-30T05:40:57.745Z,12.13
2022-09-30T05:42:00.972Z,11.40
2022-09-30T05:43:03.489Z,12.70
2022-09-30T05:44:05.304Z,11.18
2022-09-30T05:45:08.928Z,9.32
2022-09-30T05:46:10.988Z,10.48
2022-09-30T05:47:13.507Z,12.05
2022-09-30T05:48:15.046Z,11.88
2022-09-30T05:49:17.584Z,12.93
2022-09-30T05:50:19.656Z,12.27
2022-09-30T05:51:22.512Z,8.68
2022-09-30T05:52:24.440Z,10.35
2022-09-30T05:53:27.142Z,11.25
2022-09-30T05:54:29.030Z,9.70
2022-09-30T05:55:35.750Z,11.60
2022-09-30T05:56:41.202Z,12.90
2022-09-30T05:57:47.907Z,17.20
2022-09-30T05:58:50.924Z,18.60
2022-09-30T05:59:52.576Z,11.18
2022-09-30T06:00:55.169Z,11.60
2022-09-30T06:01:56.777Z,11.45
2022-09-30T06:02:59.359Z,28.65
2022-09-30T06:04:01.371Z,13.05
2022-09-30T06:05:04.063Z,13.27
2022-09-30T06:06:06.927Z,12.45
2022-09-30T06:07:10.659Z,11.27
2022-09-30T06:08:13.155Z,13.23
2022-09-30T06:09:15.830Z,10.98
2022-09-30T06:10:17.642Z,9.93
2022-09-30T06:11:23.378Z,16.10
2022-09-30T06:12:27.306Z,14.80
2022-09-30T06:13:31.596Z,16.27
2022-09-30T06:14:33.117Z,18.60
2022-09-30T06:15:36.840Z,12.85
2022-09-30T06:16:38.458Z,14.15
2022-09-30T06:17:42.423Z,10.55
2022-09-30T06:18:45.721Z,12.30
2022-09-30T06:19:47.291Z,11.82
2022-09-30T06:20:50.010Z,12.95
2022-09-30T06:21:51.806Z,12.45
2022-09-30T06:22:54.528Z,23.35
2022-09-30T06:23:58.696Z,14.38
2022-09-30T06:25:00.252Z,12.68
2022-09-30T06:26:04.625Z,17.58
2022-09-30T06:27:09.164Z,14.50
2022-09-30T06:28:10.787Z,15.38
2022-09-30T06:29:14.747Z,15.15
2022-09-30T06:30:16.836Z,13.05
2022-09-30T06:31:19.690Z,12.80
2022-09-30T06:32:21.323Z,13.10
2022-09-30T06:33:23.813Z,11.75
2022-09-30T06:34:26.396Z,11.50
2022-09-30T06:35:28.776Z,18.58
2022-09-30T06:36:33.297Z,9.40
2022-09-30T06:37:37.171Z,12.70
2022-09-30T06:38:40.454Z,15.73
2022-09-30T06:39:45.531Z,11.93
2022-09-30T06:40:54.280Z,10.45
2022-09-30T06:41:59.157Z,12.68
2022-09-30T06:43:07.058Z,12.57
2022-09-30T06:44:09.611Z,16.40
2022-09-30T06:45:21.574Z,14.30
2022-09-30T06:46:31.058Z,14.05
2022-09-30T06:47:33.193Z,13.18
2022-09-30T06:48:38.747Z,12.70
2022-09-30T06:49:49.196Z,15.32
2022-09-30T06:51:01.161Z,14.50
2022-09-30T06:52:04.041Z,9.85
2022-09-30T06:53:09.010Z,16.25
2022-09-30T06:54:10.871Z,13.07
2022-09-30T06:55:13.311Z,14.70
2022-09-30T06:56:18.195Z,17.75
2022-09-30T06:57:22.452Z,15.10
2022-09-30T06:58:25.800Z,17.35
2022-09-30T06:59:27.787Z,12.48
2022-09-30T07:00:31.737Z,13.82
2022-09-30T07:01:33.375Z,11.68
2022-09-30T07:02:36.435Z,13.77
2022-09-30T07:03:38.009Z,17.77
2022-09-30T07:04:40.502Z,13.30
2022-09-30T07:05:42.018Z,14.52
2022-09-30T07:06:44.919Z,18.75
2022-09-30T07:07:46.796Z,15.02
2022-09-30T07:08:49.298Z,18.85
2022-09-30T07:09:53.655Z,15.70
2022-09-30T07:10:57.999Z,15.52
2022-09-30T07:12:00.513Z,17.52
2022-09-30T07:13:02.638Z,10.98
2022-09-30T07:14:05.270Z,13.00
2022-09-30T07:15:12.795Z,11.27
2022-09-30T07:16:21.077Z,10.20
2022-09-30T07:17:23.149Z,14.38
2022-09-30T07:18:28.651Z,13.02
2022-09-30T07:19:31.489Z,16.38
2022-09-30T07:20:33.045Z,15.88
2022-09-30T07:21:35.564Z,13.15
2022-09-30T07:22:37.068Z,15.63
2022-09-30T07:23:47.779Z,15.77
2022-09-30T07:24:49.563Z,14.20
2022-09-30T07:25:53.710Z,16.42
2022-09-30T07:26:55.263Z,12.73
2022-09-30T07:27:57.747Z,10.55
2022-09-30T07:29:00.084Z,12.50
2022-09-30T07:30:15.112Z,12.73
2022-09-30T07:31:35.562Z,14.77
2022-09-30T07:32:39.579Z,11.27
2022-09-30T07:33:41.131Z,14.73
2022-09-30T07:34:44.001Z,13.43
2022-09-30T07:35:52.478Z,13.77
2022-09-30T07:36:55.299Z,14.23
2022-09-30T07:37:56.816Z,16.42
2022-09-30T07:39:00.208Z,12.30
2022-09-30T07:40:04.438Z,11.25
2022-09-30T07:41:09.475Z,14.90
2022-09-30T07:42:11.562Z,11.95
2022-09-30T07:43:17.029Z,13.68
2022-09-30T07:44:20.139Z,14.07
2022-09-30T07:45:21.825Z,16.58
2022-09-30T07:46:29.668Z,11.88
2022-09-30T07:47:31.200Z,17.02
2022-09-30T07:48:44.533Z,15.40
2022-09-30T07:49:46.638Z,15.25
2022-09-30T07:50:49.156Z,12.75
2022-09-30T07:51:52.383Z,14.43
2022-09-30T07:52:56.189Z,16.73
2022-09-30T07:54:00.356Z,13.50
2022-09-30T07:55:02.856Z,13.48
2022-09-30T07:56:05.550Z,19.45
2022-09-30T07:57:11.843Z,11.68
2022-09-30T07:58:13.709Z,16.38
2022-09-30T07:59:16.620Z,16.17
2022-09-30T08:00:40.666Z,13.13
2022-09-30T08:01:43.114Z,11.82
2022-09-30T08:02:45.648Z,13.52
2022-09-30T08:03:54.420Z,10.52
2022-09-30T08:04:57.140Z,15.40
2022-09-30T08:06:04.433Z,11.60
2022-09-30T08:07:07.149Z,13.95
2022-09-30T08:08:08.999Z,14.35
2022-09-30T08:09:12.275Z,15.77
2022-09-30T08:10:15.600Z,17.02
2022-09-30T08:11:17.481Z,16.45
2022-09-30T08:12:19.991Z,18.00
2022-09-30T08:13:21.588Z,15.90
2022-09-30T08:14:26.096Z,14.57
2022-09-30T08:15:27.732Z,14.40
2022-09-30T08:16:30.393Z,16.20
2022-09-30T08:17:34.277Z,13.98
2022-09-30T08:18:35.957Z,16.30
2022-09-30T08:19:41.271Z,12.23
2022-09-30T08:20:42.835Z,13.80
2022-09-30T08:21:46.219Z,16.85
2022-09-30T08:22:47.788Z,15.13
2022-09-30T08:23:50.841Z,13.70
2022-09-30T08:24:53.304Z,14.30
2022-09-30T08:26:00.988Z,15.38
2022-09-30T08:27:03.690Z,14.85
2022-09-30T08:28:05.271Z,15.43
2022-09-30T08:29:08.010Z,14.00
2022-09-30T08:30:12.654Z,22.55
2022-09-30T08:31:17.043Z,12.15
2022-09-30T08:32:19.548Z,13.10
2022-09-30T08:33:22.518Z,13.07
2022-09-30T08:34:25.307Z,13.20
2022-09-30T08:35:27.021Z,14.38
2022-09-30T08:36:30.475Z,12.75
2022-09-30T08:37:32.016Z,12.43
2022-09-30T08:38:35.318Z,14.07
2022-09-30T08:39:38.040Z,17.73
2022-09-30T08:40:58.633Z,16.73
2022-09-30T08:42:32.805Z,13.90
2022-09-30T08:43:51.176Z,18.55
2022-09-30T08:44:52.787Z,17.23
2022-09-30T08:46:05.469Z,19.85
2022-09-30T08:47:22.963Z,14.77
2022-09-30T08:48:49.920Z,18.63
2022-09-30T08:50:03.313Z,16.35
2022-09-30T08:51:20.665Z,19.38
2022-09-30T08:52:37.381Z,18.27
2022-09-30T08:53:49.023Z,15.38
2022-09-30T08:54:53.354Z,17.15
2022-09-30T08:55:57.918Z,17.05
2022-09-30T08:57:01.900Z,14.13
2022-09-30T08:58:05.881Z,18.30
2022-09-30T08:59:21.303Z,17.33
2022-09-30T09:00:24.208Z,17.77
2022-09-30T09:01:31.520Z,16.77
2022-09-30T09:02:37.110Z,13.65
2022-09-30T09:03:40.547Z,19.30
2022-09-30T09:04:43.482Z,17.70
2022-09-30T09:06:01.570Z,17.05
2022-09-30T09:07:11.510Z,21.98
2022-09-30T09:08:19.153Z,15.52
2022-09-30T09:09:44.302Z,14.18
2022-09-30T09:10:54.495Z,15.48
2022-09-30T09:12:11.374Z,14.63
2022-09-30T09:13:26.528Z,13.55
2022-09-30T09:14:40.207Z,15.73
2022-09-30T09:15:59.510Z,19.50
2022-09-30T09:17:14.603Z,19.50
2022-09-30T09:18:34.719Z,15.68
2022-09-30T09:19:47.410Z,18.98
2022-09-30T09:20:55.413Z,19.70
2022-09-30T09:22:02.738Z,16.65
2022-09-30T09:23:10.357Z,25.05
2022-09-30T09:24:16.956Z,18.10
2022-09-30T09:25:23.032Z,21.58
2022-09-30T09:26:27.723Z,19.67
2022-09-30T09:27:42.802Z,16.38
2022-09-30T09:28:56.406Z,19.63
2022-09-30T09:30:12.709Z,20.60
2022-09-30T09:31:17.271Z,16.23
2022-09-30T09:32:20.128Z,18.75
2022-09-30T09:33:26.129Z,18.30
2022-09-30T09:34:31.665Z,19.40
2022-09-30T09:35:47.090Z,16.75
2022-09-30T09:37:03.804Z,21.83
2022-09-30T09:38:29.828Z,18.60
2022-09-30T09:39:52.282Z,17.40
2022-09-30T09:41:08.429Z,16.45
2022-09-30T09:42:30.716Z,17.02
2022-09-30T09:43:49.013Z,16.13
2022-09-30T09:44:57.363Z,18.30
2022-09-30T09:46:05.265Z,22.65
2022-09-30T09:47:15.010Z,18.58
2022-09-30T09:48:17.336Z,21.90
2022-09-30T09:49:35.064Z,22.92
2022-09-30T09:50:46.660Z,17.88
2022-09-30T09:51:58.519Z,19.88
2022-09-30T09:53:22.243Z,21.15
2022-09-30T09:54:31.098Z,20.85
2022-09-30T09:55:37.703Z,23.60
2022-09-30T09:56:40.223Z,20.27
2022-09-30T09:57:41.787Z,22.08
2022-09-30T09:59:08.917Z,21.40
2022-09-30T10:00:31.816Z,22.33
2022-09-30T10:01:36.339Z,18.75
2022-09-30T10:02:39.717Z,17.02
2022-09-30T10:03:42.663Z,20.00
2022-09-30T10:04:50.911Z,25.95
2022-09-30T10:06:04.090Z,19.25
2022-09-30T10:07:15.087Z,25.50
2022-09-30T10:08:18.986Z,22.77
2022-09-30T10:09:27.272Z,17.50
2022-09-30T10:10:30.174Z,17.25
2022-09-30T10:11:31.740Z,18.42
2022-09-30T10:12:34.297Z,21.73
2022-09-30T10:13:42.889Z,21.10
2022-09-30T10:14:52.556Z,19.95
2022-09-30T10:15:57.936Z,21.73
2022-09-30T10:17:00.787Z,22.30
2022-09-30T10:18:03.309Z,21.63
2022-09-30T10:19:19.917Z,21.58
2022-09-30T10:20:29.137Z,18.40
2022-09-30T10:21:33.037Z,20.45
2022-09-30T10:22:36.438Z,21.23
2022-09-30T10:23:40.624Z,18.80
2022-09-30T10:24:42.321Z,17.98
2022-09-30T10:25:57.045Z,23.67
2022-09-30T10:26:59.566Z,26.38
2022-09-30T10:28:04.089Z,23.83
2022-09-30T10:29:27.285Z,20.73
2022-09-30T10:30:45.635Z,20.23
2022-09-30T10:31:50.562Z,20.88
2022-09-30T10:32:52.346Z,18.00
2022-09-30T10:34:01.212Z,18.40
2022-09-30T10:35:06.141Z,19.83
2022-09-30T10:36:12.981Z,16.80
2022-09-30T10:37:20.663Z,22.00
2022-09-30T10:38:26.396Z,19.92
2022-09-30T10:39:31.002Z,17.85
2022-09-30T10:40:40.029Z,16.48
2022-09-30T10:41:43.139Z,15.45
2022-09-30T10:42:48.352Z,17.23
2022-09-30T10:43:53.718Z,18.83
2022-09-30T10:44:57.413Z,20.80
2022-09-30T10:46:24.579Z,18.52
2022-09-30T10:47:31.356Z,21.92
2022-09-30T10:48:38.991Z,18.80
2022-09-30T10:49:49.053Z,17.98
2022-09-30T10:50:52.611Z,19.67
2022-09-30T10:51:56.199Z,17.13
2022-09-30T10:53:02.224Z,21.50
2022-09-30T10:54:07.119Z,14.20
2022-09-30T10:55:29.413Z,17.63
2022-09-30T10:56:39.249Z,15.18
2022-09-30T10:57:41.757Z,18.23
2022-09-30T10:58:48.671Z,15.60
2022-09-30T10:59:55.726Z,18.13
2022-09-30T11:01:02.239Z,18.10
2022-09-30T11:02:18.963Z,16.92
2022-09-30T11:03:25.397Z,18.40
2022-09-30T11:04:34.804Z,17.48
2022-09-30T11:05:40.052Z,16.33
2022-09-30T11:06:46.893Z,17.83
2022-09-30T11:07:55.810Z,16.60
2022-09-30T11:09:04.723Z,16.08
2022-09-30T11:10:15.377Z,17.83
2022-09-30T11:11:22.573Z,16.20
2022-09-30T11:12:33.572Z,23.60
2022-09-30T11:13:38.139Z,18.58
2022-09-30T11:14:45.252Z,20.20
2022-09-30T11:15:58.677Z,16.35
2022-09-30T11:17:08.638Z,14.82
2022-09-30T11:18:19.750Z,12.80
2022-09-30T11:19:26.868Z,13.65
2022-09-30T11:20:32.403Z,14.10
2022-09-30T11:21:37.563Z,15.73
2022-09-30T11:22:47.083Z,14.95
2022-09-30T11:23:55.985Z,18.05
2022-09-30T11:24:59.155Z,17.80
2022-09-30T11:26:08.005Z,16.23
2022-09-30T11:27:16.312Z,17.60
2022-09-30T11:28:36.910Z,13.85
2022-09-30T11:29:50.294Z,16.35
2022-09-30T11:31:06.775Z,14.63
2022-09-30T11:32:17.288Z,12.52
2022-09-30T11:33:36.071Z,14.23
2022-09-30T11:34:55.176Z,21.50
2022-09-30T11:36:06.813Z,15.43
2022-09-30T11:37:18.789Z,17.55
2022-09-30T11:38:48.455Z,13.48
2022-09-30T11:40:05.745Z,15.70
2022-09-30T11:41:12.230Z,13.13
2022-09-30T11:42:22.901Z,18.67
2022-09-30T11:43:34.993Z,10.65
2022-09-30T11:44:41.510Z,12.98
2022-09-30T11:46:01.162Z,12.85
2022-09-30T11:47:17.590Z,13.00
2022-09-30T11:48:35.358Z,12.02
2022-09-30T11:50:11.084Z,12.05
2022-09-30T11:51:20.585Z,14.70
2022-09-30T11:52:32.094Z,9.75
2022-09-30T11:53:44.078Z,10.85
2022-09-30T11:55:11.771Z,14.13
2022-09-30T11:56:32.705Z,18.65
2022-09-30T11:57:41.751Z,15.25
2022-09-30T11:58:50.426Z,13.05
2022-09-30T11:59:58.030Z,13.48
2022-09-30T12:01:12.300Z,12.82
2022-09-30T12:02:30.269Z,15.50
2022-09-30T12:03:38.213Z,12.55
2022-09-30T12:04:43.803Z,11.85
2022-09-30T12:05:48.481Z,11.07
2022-09-30T12:06:57.461Z,8.00
2022-09-30T12:08:05.648Z,11.48
2022-09-30T12:09:17.548Z,9.10
2022-09-30T12:10:25.690Z,12.05
2022-09-30T12:11:33.858Z,10.80
2022-09-30T12:12:37.236Z,8.38
2022-09-30T12:13:43.363Z,9.73
2022-09-30T12:14:49.393Z,8.10
2022-09-30T12:15:55.128Z,8.00
2022-09-30T12:17:00.756Z,7.45
2022-09-30T12:18:06.364Z,9.82
2022-09-30T12:19:15.684Z,7.07
2022-09-30T12:20:26.062Z,8.27
2022-09-30T12:21:33.008Z,10.32
2022-09-30T12:22:40.928Z,7.88
2022-09-30T12:23:46.331Z,6.45
2022-09-30T12:24:48.898Z,8.60
2022-09-30T12:25:55.820Z,8.57
2022-09-30T12:26:59.470Z,8.27
2022-09-30T12:28:28.113Z,10.90
2022-09-30T12:29:54.085Z,7.13
2022-09-30T12:31:04.828Z,7.70
2022-09-30T12:32:25.094Z,6.07
2022-09-30T12:33:40.992Z,8.05
2022-09-30T12:35:03.306Z,6.25
2022-09-30T12:36:23.344Z,7.25
2022-09-30T12:37:40.279Z,7.40
2022-09-30T12:39:18.451Z,7.30
2022-09-30T12:40:52.713Z,7.75
2022-09-30T12:42:13.454Z,6.13
2022-09-30T12:43:46.305Z,9.52
2022-09-30T12:45:19.771Z,7.63
2022-09-30T12:46:31.168Z,5.90
2022-09-30T12:47:45.619Z,7.00
2022-09-30T12:48:51.753Z,5.10
2022-09-30T12:49:58.971Z,6.80
2022-09-30T12:51:01.057Z,6.97
2022-09-30T12:52:07.504Z,6.53
2022-09-30T12:53:16.465Z,8.48
2022-09-30T12:54:24.972Z,10.02
2022-09-30T12:55:31.112Z,9.05
2022-09-30T12:56:34.898Z,8.38
2022-09-30T12:57:43.619Z,7.43
2022-09-30T12:58:49.737Z,5.97
2022-09-30T12:59:55.595Z,8.10
2022-09-30T13:01:01.443Z,6.53
2022-09-30T13:02:07.085Z,9.90
2022-09-30T13:03:15.625Z,9.45
2022-09-30T13:04:31.964Z,7.95
2022-09-30T13:05:51.793Z,5.43
2022-09-30T13:07:24.592Z,7.72
2022-09-30T13:08:47.930Z,8.20
2022-09-30T13:10:26.147Z,7.05
2022-09-30T13:11:37.148Z,8.73
2022-09-30T13:12:46.557Z,7.45
2022-09-30T13:14:02.312Z,10.52
2022-09-30T13:15:40.388Z,7.18
2022-09-30T13:17:23.475Z,9.93
2022-09-30T13:19:01.041Z,6.50
2022-09-30T13:20:03.904Z,5.93
2022-09-30T13:21:22.437Z,5.15
2022-09-30T13:22:58.182Z,8.15
2022-09-30T13:24:01.797Z,5.80
2022-09-30T13:25:10.808Z,6.35
2022-09-30T13:26:40.091Z,7.00
2022-09-30T13:27:44.964Z,6.88
2022-09-30T13:28:47.704Z,8.45
2022-09-30T13:29:50.277Z,6.40
2022-09-30T13:31:11.521Z,20.90
2022-09-30T13:32:32.779Z,7.20
2022-09-30T13:33:45.821Z,7.40
2022-09-30T13:34:56.084Z,7.80
2022-09-30T13:36:08.612Z,7.28
2022-09-30T13:37:35.733Z,7.50
2022-09-30T13:38:40.063Z,8.95
2022-09-30T13:39:48.688Z,8.23
2022-09-30T13:41:02.293Z,8.77
2022-09-30T13:42:18.661Z,14.65
2022-09-30T13:43:26.124Z,5.40
2022-09-30T13:44:37.153Z,6.10
2022-09-30T13:45:42.018Z,13.50
2022-09-30T13:46:49.858Z,6.22
2022-09-30T13:48:07.322Z,6.82
2022-09-30T13:49:17.747Z,7.95
2022-09-30T13:50:24.749Z,6.97
2022-09-30T13:51:30.480Z,10.63
2022-09-30T13:52:38.073Z,7.45
2022-09-30T13:53:45.384Z,6.20
2022-09-30T13:54:50.127Z,6.35
2022-09-30T13:55:53.825Z,11.65
2022-09-30T13:56:57.041Z,8.32
2022-09-30T13:58:08.529Z,7.30
2022-09-30T13:59:37.409Z,7.50
2022-09-30T14:00:57.770Z,6.50
2022-09-30T14:02:22.621Z,9.40
2022-09-30T14:03:46.437Z,7.18
2022-09-30T14:05:07.184Z,7.97
2022-09-30T14:06:22.982Z,9.25
2022-09-30T14:07:41.111Z,7.80
2022-09-30T14:09:20.439Z,6.25
2022-09-30T14:10:36.103Z,7.88
2022-09-30T14:12:03.008Z,8.05
2022-09-30T14:13:19.772Z,5.80
2022-09-30T14:14:43.266Z,8.18
2022-09-30T14:16:19.338Z,5.95
2022-09-30T14:17:36.795Z,6.55
2022-09-30T14:18:59.591Z,9.40
2022-09-30T14:20:20.887Z,6.70
2022-09-30T14:21:35.016Z,5.95
2022-09-30T14:22:38.245Z,8.65
2022-09-30T14:23:40.176Z,9.15
2022-09-30T14:24:43.177Z,9.18
2022-09-30T14:25:58.944Z,6.90
2022-09-30T14:27:15.757Z,5.60
2022-09-30T14:28:28.054Z,5.00
2022-09-30T14:29:39.202Z,7.65
2022-09-30T14:31:03.539Z,7.20
2022-09-30T14:32:11.734Z,5.13
2022-09-30T14:33:26.137Z,7.18
2022-09-30T14:34:29.432Z,6.15
2022-09-30T14:35:34.567Z,8.10
2022-09-30T14:36:36.361Z,6.90
2022-09-30T14:37:42.724Z,5.78
2022-09-30T14:38:47.909Z,8.45
2022-09-30T14:39:49.923Z,6.10
2022-09-30T14:40:56.811Z,6.97
2022-09-30T14:42:01.976Z,10.15